Time;durP1;ratioP1;P1;durP2;ratioP2;P2;SDS_P1;SDS_P2;PMS_P1;PMS_P2;Temp;Humidity;BMP_temperature;BMP_pressure;BME280_temperature;BME280_humidity;BME280_pressure;Samples;Min_cycle;Max_cycle;Signal;HPM_P1;HPM_P2
2022/10/28 00:00:42;;;;;;;;;12.75;12.75;;;;;;;;5119569;27;46291;-72
2022/10/28 00:03:08;;;;;;;;;11.00;11.00;;;;;;;;5119862;27;45285;-70
2022/10/28 00:05:33;;;;;;;;;10.75;10.00;;;;;;;;5120611;27;45383;-70
2022/10/28 00:07:58;;;;;;;;;10.25;10.25;;;;;;;;5120927;27;45525;-72
2022/10/28 00:10:24;;;;;;;;;8.25;8.25;;;;;;;;5122798;27;45434;-71
2022/10/28 00:12:49;;;;;;;;;7.75;7.75;;;;;;;;5122213;27;45243;-68
2022/10/28 00:15:14;;;;;;;;;10.00;10.00;;;;;;;;5119657;27;45394;-70
2022/10/28 00:17:39;;;;;;;;;11.00;10.00;;;;;;;;5119704;27;45456;-70
2022/10/28 00:20:05;;;;;;;;;8.25;8.25;;;;;;;;5119578;27;45932;-69
2022/10/28 00:22:30;;;;;;;;;8.75;8.75;;;;;;;;5119291;27;45435;-71
2022/10/28 00:24:55;;;;;;;;;10.00;10.00;;;;;;;;5119984;27;45351;-70
2022/10/28 00:27:20;;;;;;;;;18.75;18.75;;;;;;;;5119615;27;45540;-71
2022/10/28 00:29:46;;;;;;;;;11.00;11.00;;;;;;;;5119206;27;46803;-72
2022/10/28 00:32:11;;;;;;;;;9.25;9.25;;;;;;;;5119411;27;45392;-72
2022/10/28 00:34:37;;;;;;;;;5.00;5.00;;;;;;;;5120312;27;45310;-72
2022/10/28 00:37:02;;;;;;;;;10.50;9.75;;;;;;;;5120224;27;45336;-70
2022/10/28 00:39:27;;;;;;;;;7.75;7.75;;;;;;;;5119295;27;45473;-70
2022/10/28 00:41:57;;;;;;;;;9.25;8.25;;;;;;;;5119066;27;45348;-71
2022/10/28 00:44:37;;;;;;;;;9.00;9.00;;;;;;;;5119408;27;45322;-73
2022/10/28 00:47:03;;;;;;;;;8.75;8.75;;;;;;;;5119050;27;45717;-69
2022/10/28 00:49:30;;;;;;;;;1.75;1.75;;;;;;;;5100321;27;47312;-70
2022/10/28 00:51:58;;;;;;;;;9.75;9.50;;;;;;;;5120653;27;45323;-72
2022/10/28 00:54:24;;;;;;;;;8.00;8.00;;;;;;;;5120488;27;45848;-70
2022/10/28 00:56:52;;;;;;;;;9.25;9.25;;;;;;;;5120039;27;45742;-70
2022/10/28 00:59:37;;;;;;;;;9.00;9.00;;;;;;;;5120550;27;46441;-70
2022/10/28 01:02:04;;;;;;;;;8.00;8.00;;;;;;;;5120857;27;45237;-73
2022/10/28 01:04:29;;;;;;;;;8.25;8.25;;;;;;;;5119468;27;45350;-72
2022/10/28 01:06:55;;;;;;;;;9.00;9.00;;;;;;;;5119229;27;45314;-71
2022/10/28 01:09:20;;;;;;;;;7.00;7.00;;;;;;;;5119393;27;46372;-72
2022/10/28 01:11:46;;;;;;;;;8.50;8.50;;;;;;;;5119378;27;45209;-72
2022/10/28 01:14:36;;;;;;;;;9.50;9.50;;;;;;;;5119558;27;45235;-71
2022/10/28 01:17:04;;;;;;;;;7.75;7.00;;;;;;;;5105297;27;45579;-75
2022/10/28 01:19:50;;;;;;;;;9.00;9.00;;;;;;;;5119930;27;46436;-71
2022/10/28 01:22:15;;;;;;;;;6.00;6.00;;;;;;;;5119938;27;45541;-74
2022/10/28 01:24:43;;;;;;;;;10.25;10.25;;;;;;;;5120260;27;45344;-73
2022/10/28 01:27:11;;;;;;;;;7.00;7.00;;;;;;;;5119879;27;45660;-70
2022/10/28 01:29:45;;;;;;;;;9.00;9.00;;;;;;;;5119027;27;46395;-70
2022/10/28 01:32:22;;;;;;;;;9.00;9.00;;;;;;;;5123495;27;45314;-72
2022/10/28 01:34:58;;;;;;;;;7.00;7.00;;;;;;;;5118654;27;45364;-73
2022/10/28 01:37:31;;;;;;;;;10.00;10.00;;;;;;;;5118426;27;45224;-72
2022/10/28 01:39:59;;;;;;;;;6.75;6.75;;;;;;;;5118193;27;45323;-70
2022/10/28 01:42:27;;;;;;;;;8.25;8.25;;;;;;;;5118494;27;45176;-72
2022/10/28 01:45:00;;;;;;;;;7.00;7.00;;;;;;;;5100103;27;45334;-73
2022/10/28 01:47:30;;;;;;;;;5.00;5.00;;;;;;;;5120299;27;45416;-72
2022/10/28 01:49:57;;;;;;;;;11.25;11.25;;;;;;;;5099916;27;46797;-71
2022/10/28 01:52:24;;;;;;;;;10.00;10.00;;;;;;;;5099445;27;46167;-72
2022/10/28 01:54:54;;;;;;;;;7.25;7.25;;;;;;;;5117139;27;45334;-71
2022/10/28 01:57:22;;;;;;;;;8.25;8.25;;;;;;;;5100301;27;45484;-73
2022/10/28 01:59:48;;;;;;;;;7.75;7.75;;;;;;;;5099312;27;47378;-74
2022/10/28 02:02:14;;;;;;;;;8.50;8.50;;;;;;;;5117939;27;45592;-72
2022/10/28 02:04:39;;;;;;;;;16.00;16.00;;;;;;;;5119068;27;45484;-72
2022/10/28 02:07:06;;;;;;;;;8.00;8.00;;;;;;;;5119482;27;45623;-70
2022/10/28 02:09:46;;;;;;;;;9.50;9.50;;;;;;;;5119986;27;46059;-70
2022/10/28 02:12:31;;;;;;;;;9.00;9.00;;;;;;;;5120105;27;45466;-72
2022/10/28 02:15:06;;;;;;;;;8.25;8.25;;;;;;;;5102660;27;45255;-70
2022/10/28 02:17:54;;;;;;;;;8.25;8.25;;;;;;;;5120018;27;45357;-73
2022/10/28 02:20:19;;;;;;;;;8.75;8.75;;;;;;;;5117696;27;45491;-72
2022/10/28 02:23:10;;;;;;;;;9.25;7.50;;;;;;;;5118771;27;45353;-71
2022/10/28 02:25:54;;;;;;;;;7.75;7.75;;;;;;;;5117792;27;45324;-71
2022/10/28 02:28:23;;;;;;;;;8.75;8.75;;;;;;;;5117874;27;45378;-70
2022/10/28 02:30:52;;;;;;;;;9.50;9.50;;;;;;;;5117121;27;45326;-71
2022/10/28 02:33:21;;;;;;;;;10.00;10.00;;;;;;;;5117211;27;45397;-70
2022/10/28 02:36:05;;;;;;;;;9.25;9.25;;;;;;;;5118575;27;45291;-71
2022/10/28 02:38:32;;;;;;;;;9.00;9.00;;;;;;;;5117855;27;45322;-73
2022/10/28 02:41:01;;;;;;;;;8.25;8.25;;;;;;;;5117050;27;45294;-72
2022/10/28 02:43:28;;;;;;;;;8.25;8.25;;;;;;;;5117504;27;45467;-72
2022/10/28 02:45:55;;;;;;;;;8.00;8.00;;;;;;;;5118141;27;45306;-71
2022/10/28 02:48:25;;;;;;;;;7.50;7.50;;;;;;;;5117593;27;45346;-70
2022/10/28 02:50:53;;;;;;;;;9.75;9.75;;;;;;;;5117055;27;46068;-71
2022/10/28 02:53:21;;;;;;;;;8.75;7.25;;;;;;;;5116805;27;45334;-71
2022/10/28 02:55:50;;;;;;;;;5.75;5.75;;;;;;;;5098723;27;45350;-71
2022/10/28 02:58:16;;;;;;;;;9.25;9.25;;;;;;;;5118042;27;45319;-71
2022/10/28 03:00:45;;;;;;;;;8.25;8.00;;;;;;;;5117029;27;45275;-72
2022/10/28 03:03:10;;;;;;;;;8.00;8.00;;;;;;;;5117058;27;45452;-70
2022/10/28 03:05:35;;;;;;;;;8.25;8.25;;;;;;;;5116662;27;45276;-70
2022/10/28 03:08:00;;;;;;;;;9.00;9.00;;;;;;;;5116973;27;45382;-71
2022/10/28 03:10:25;;;;;;;;;8.00;8.00;;;;;;;;5116634;27;45400;-70
2022/10/28 03:12:51;;;;;;;;;8.00;8.00;;;;;;;;5098096;27;45373;-70
2022/10/28 03:15:16;;;;;;;;;8.25;8.25;;;;;;;;5098619;27;45409;-70
2022/10/28 03:17:41;;;;;;;;;8.00;8.00;;;;;;;;5117106;27;45259;-71
2022/10/28 03:20:06;;;;;;;;;7.25;7.25;;;;;;;;5116335;27;45976;-71
2022/10/28 03:22:32;;;;;;;;;7.00;7.00;;;;;;;;5117894;27;45214;-70
2022/10/28 03:24:57;;;;;;;;;9.00;9.00;;;;;;;;5098071;27;45361;-70
2022/10/28 03:27:22;;;;;;;;;7.00;7.00;;;;;;;;5116882;27;45358;-70
2022/10/28 03:29:47;;;;;;;;;5.75;5.75;;;;;;;;5117178;27;45916;-70
2022/10/28 03:32:13;;;;;;;;;8.25;8.25;;;;;;;;5098001;27;45758;-71
2022/10/28 03:34:38;;;;;;;;;7.50;7.50;;;;;;;;5116885;27;45144;-70
2022/10/28 03:37:03;;;;;;;;;7.50;7.50;;;;;;;;5117139;27;45264;-71
2022/10/28 03:39:28;;;;;;;;;7.75;7.75;;;;;;;;5099802;27;45917;-72
2022/10/28 03:41:54;;;;;;;;;4.50;4.50;;;;;;;;5117795;27;45328;-73
2022/10/28 03:44:19;;;;;;;;;7.00;7.00;;;;;;;;5118647;27;45291;-72
2022/10/28 03:46:44;;;;;;;;;9.25;9.25;;;;;;;;5118965;27;45180;-72
2022/10/28 03:49:09;;;;;;;;;10.00;9.75;;;;;;;;5118488;27;46178;-71
2022/10/28 03:51:34;;;;;;;;;9.25;9.25;;;;;;;;5116849;27;45357;-73
2022/10/28 03:54:00;;;;;;;;;7.50;7.50;;;;;;;;5117314;27;45326;-72
2022/10/28 03:56:25;;;;;;;;;8.75;8.75;;;;;;;;5118557;27;45217;-73
2022/10/28 03:58:50;;;;;;;;;9.00;9.00;;;;;;;;5117641;27;46161;-72
2022/10/28 04:01:15;;;;;;;;;8.25;8.25;;;;;;;;5121099;27;45337;-73
2022/10/28 04:03:41;;;;;;;;;7.25;7.25;;;;;;;;5100339;27;45317;-74
2022/10/28 04:06:08;;;;;;;;;6.75;6.75;;;;;;;;5118156;27;45206;-73
2022/10/28 04:08:33;;;;;;;;;8.25;8.00;;;;;;;;5117530;27;46492;-73
2022/10/28 04:10:59;;;;;;;;;10.50;10.50;;;;;;;;5117821;27;45481;-72
2022/10/28 04:13:24;;;;;;;;;8.75;8.75;;;;;;;;5117189;27;45321;-70
2022/10/28 04:15:49;;;;;;;;;8.50;7.75;;;;;;;;5118566;27;45296;-74
2022/10/28 04:18:14;;;;;;;;;7.25;7.25;;;;;;;;5120200;27;45318;-73
2022/10/28 04:20:39;;;;;;;;;5.50;5.50;;;;;;;;5120629;27;45357;-70
2022/10/28 04:23:05;;;;;;;;;6.75;6.75;;;;;;;;5120858;27;45370;-71
2022/10/28 04:25:30;;;;;;;;;7.25;7.25;;;;;;;;5120773;27;45418;-72
2022/10/28 04:27:55;;;;;;;;;7.75;7.75;;;;;;;;5119751;27;46229;-71
2022/10/28 04:30:20;;;;;;;;;9.00;8.00;;;;;;;;5120539;27;45356;-70
2022/10/28 04:32:45;;;;;;;;;8.50;8.50;;;;;;;;5120930;27;45437;-71
2022/10/28 04:35:11;;;;;;;;;9.25;9.25;;;;;;;;5103122;27;45430;-70
2022/10/28 04:37:37;;;;;;;;;8.75;8.00;;;;;;;;5119082;27;46785;-70
2022/10/28 04:40:03;;;;;;;;;3.00;3.00;;;;;;;;5120413;27;45219;-71
2022/10/28 04:42:28;;;;;;;;;11.75;11.75;;;;;;;;5120024;27;45263;-71
2022/10/28 04:44:53;;;;;;;;;11.50;11.00;;;;;;;;5119165;27;45487;-71
2022/10/28 04:47:19;;;;;;;;;7.75;7.75;;;;;;;;5119236;27;46211;-70
2022/10/28 04:49:44;;;;;;;;;7.50;7.50;;;;;;;;5119019;27;45326;-69
2022/10/28 04:52:09;;;;;;;;;10.00;10.00;;;;;;;;5119227;27;45182;-70
2022/10/28 04:54:35;;;;;;;;;10.50;10.00;;;;;;;;5119445;27;45473;-72
2022/10/28 04:57:02;;;;;;;;;8.75;8.75;;;;;;;;5122347;27;46108;-70
2022/10/28 04:59:27;;;;;;;;;8.00;8.00;;;;;;;;5123512;27;45291;-71
2022/10/28 05:01:52;;;;;;;;;9.00;9.00;;;;;;;;5122963;27;45313;-70
2022/10/28 05:04:17;;;;;;;;;9.50;9.50;;;;;;;;5121010;27;45484;-71
2022/10/28 05:06:42;;;;;;;;;8.25;8.25;;;;;;;;5121058;27;45465;-69
2022/10/28 05:09:08;;;;;;;;;8.75;8.75;;;;;;;;5122004;27;45418;-70
2022/10/28 05:11:33;;;;;;;;;8.75;8.50;;;;;;;;5119480;27;45347;-72
2022/10/28 05:13:58;;;;;;;;;10.00;8.75;;;;;;;;5100383;27;45650;-73
2022/10/28 05:16:23;;;;;;;;;9.00;9.00;;;;;;;;5120300;27;45995;-70
2022/10/28 05:18:49;;;;;;;;;6.75;6.75;;;;;;;;5120637;27;45419;-71
2022/10/28 05:21:14;;;;;;;;;14.75;14.25;;;;;;;;5118792;27;45298;-70
2022/10/28 05:23:39;;;;;;;;;6.75;6.75;;;;;;;;5118957;27;45489;-71
2022/10/28 05:26:05;;;;;;;;;6.75;6.75;;;;;;;;5119127;27;45344;-72
2022/10/28 05:28:30;;;;;;;;;11.50;11.50;;;;;;;;5118125;27;45330;-71
2022/10/28 05:30:55;;;;;;;;;11.00;11.00;;;;;;;;5121559;27;45429;-71
2022/10/28 05:33:20;;;;;;;;;10.00;9.50;;;;;;;;5120361;27;45300;-69
2022/10/28 05:35:46;;;;;;;;;9.50;9.50;;;;;;;;5100156;27;47093;-74
2022/10/28 05:38:11;;;;;;;;;8.25;8.25;;;;;;;;5118571;27;45236;-71
2022/10/28 05:40:36;;;;;;;;;9.00;9.00;;;;;;;;5118700;27;45285;-72
2022/10/28 05:43:02;;;;;;;;;10.50;10.50;;;;;;;;5084985;27;45667;-76
2022/10/28 05:45:27;;;;;;;;;11.50;11.00;;;;;;;;5095792;27;45450;-76
2022/10/28 05:47:52;;;;;;;;;11.50;11.50;;;;;;;;5079470;28;45415;-71
2022/10/28 05:50:19;;;;;;;;;13.00;12.75;;;;;;;;5085094;27;45595;-75
2022/10/28 05:52:54;;;;;;;;;13.25;12.00;;;;;;;;5091138;27;45471;-72
2022/10/28 05:55:20;;;;;;;;;11.50;11.25;;;;;;;;5093315;27;46331;-75
2022/10/28 05:57:46;;;;;;;;;14.00;14.00;;;;;;;;5097677;27;45353;-74
2022/10/28 06:00:12;;;;;;;;;12.75;12.75;;;;;;;;5097300;27;45534;-72
2022/10/28 06:02:37;;;;;;;;;10.50;10.50;;;;;;;;5082085;27;45433;-75
2022/10/28 06:05:03;;;;;;;;;11.50;10.25;;;;;;;;5060847;28;47298;-72
2022/10/28 06:07:28;;;;;;;;;12.75;12.00;;;;;;;;5077085;27;45537;-73
2022/10/28 06:09:53;;;;;;;;;7.50;7.50;;;;;;;;5099928;27;45402;-71
2022/10/28 06:12:19;;;;;;;;;9.25;9.25;;;;;;;;5093627;27;45316;-72
2022/10/28 06:14:44;;;;;;;;;10.25;10.00;;;;;;;;5078552;27;46257;-74
2022/10/28 06:17:09;;;;;;;;;16.50;16.50;;;;;;;;5075916;27;45367;-75
2022/10/28 06:19:34;;;;;;;;;15.75;15.75;;;;;;;;5076529;28;45330;-73
2022/10/28 06:22:00;;;;;;;;;20.00;20.00;;;;;;;;5075087;28;45502;-72
2022/10/28 06:24:25;;;;;;;;;10.75;10.75;;;;;;;;5076689;27;45367;-73
2022/10/28 06:26:50;;;;;;;;;9.25;9.25;;;;;;;;5078619;27;45391;-74
2022/10/28 06:29:15;;;;;;;;;10.75;10.75;;;;;;;;5100764;27;45464;-75
2022/10/28 06:31:41;;;;;;;;;8.25;8.25;;;;;;;;5096771;27;45418;-72
2022/10/28 06:34:07;;;;;;;;;14.00;12.25;;;;;;;;5113188;27;46068;-76
2022/10/28 06:36:32;;;;;;;;;9.75;9.75;;;;;;;;5102677;27;45303;-73
2022/10/28 06:38:58;;;;;;;;;11.50;11.50;;;;;;;;5113336;27;45303;-76
2022/10/28 06:41:23;;;;;;;;;8.00;8.00;;;;;;;;5107272;27;45201;-74
2022/10/28 06:43:48;;;;;;;;;9.50;9.50;;;;;;;;5101323;27;46294;-74
2022/10/28 06:46:13;;;;;;;;;9.25;9.25;;;;;;;;5111579;27;45346;-74
2022/10/28 06:48:38;;;;;;;;;11.25;11.25;;;;;;;;5101431;27;45272;-73
2022/10/28 06:51:04;;;;;;;;;20.50;20.50;;;;;;;;5107705;27;45393;-74
2022/10/28 06:53:29;;;;;;;;;14.50;13.75;;;;;;;;5113035;27;45331;-76
2022/10/28 06:55:55;;;;;;;;;15.75;15.75;;;;;;;;5102795;27;45325;-75
2022/10/28 06:58:20;;;;;;;;;10.50;9.50;;;;;;;;5117406;27;45202;-75
2022/10/28 07:00:46;;;;;;;;;9.75;9.50;;;;;;;;5102052;27;45591;-74
2022/10/28 07:03:11;;;;;;;;;9.50;9.50;;;;;;;;5106042;27;45995;-75
2022/10/28 07:05:36;;;;;;;;;9.75;9.75;;;;;;;;5108044;27;45523;-74
2022/10/28 07:08:02;;;;;;;;;9.75;9.75;;;;;;;;5099516;27;45690;-74
2022/10/28 07:10:27;;;;;;;;;12.50;12.25;;;;;;;;5112968;27;45318;-74
2022/10/28 07:12:52;;;;;;;;;10.00;10.00;;;;;;;;5103695;27;45395;-74
2022/10/28 07:15:17;;;;;;;;;9.75;9.75;;;;;;;;5105868;27;45365;-76
2022/10/28 07:17:43;;;;;;;;;11.00;11.00;;;;;;;;5110447;27;45466;-76
2022/10/28 07:20:08;;;;;;;;;11.50;11.50;;;;;;;;5101460;27;45478;-74
2022/10/28 07:22:33;;;;;;;;;14.75;14.50;;;;;;;;5111771;27;45591;-75
2022/10/28 07:24:59;;;;;;;;;10.00;10.00;;;;;;;;5103662;27;45325;-73
2022/10/28 07:27:24;;;;;;;;;15.00;15.00;;;;;;;;5105323;27;45473;-75
2022/10/28 07:29:49;;;;;;;;;12.75;12.75;;;;;;;;5111161;27;45392;-75
2022/10/28 07:32:14;;;;;;;;;12.75;12.75;;;;;;;;5099284;27;46321;-74
2022/10/28 07:34:39;;;;;;;;;14.75;10.25;;;;;;;;5110485;27;45408;-73
2022/10/28 07:37:05;;;;;;;;;11.00;11.00;;;;;;;;5103475;27;45402;-75
2022/10/28 07:39:30;;;;;;;;;14.00;14.00;;;;;;;;5104718;27;45424;-73
2022/10/28 07:41:55;;;;;;;;;8.50;7.25;;;;;;;;5115683;27;45324;-75
2022/10/28 07:44:21;;;;;;;;;11.75;11.75;;;;;;;;5102504;27;45593;-75
2022/10/28 07:46:46;;;;;;;;;12.00;11.25;;;;;;;;5112558;27;45501;-75
2022/10/28 07:49:11;;;;;;;;;10.00;10.00;;;;;;;;5105461;27;45638;-74
2022/10/28 07:51:36;;;;;;;;;10.50;10.50;;;;;;;;5117446;27;46087;-79
2022/10/28 07:54:02;;;;;;;;;10.25;10.25;;;;;;;;5120419;27;45438;-76
2022/10/28 07:56:27;;;;;;;;;12.50;12.50;;;;;;;;5104710;27;45518;-77
2022/10/28 07:58:52;;;;;;;;;11.75;11.75;;;;;;;;5126066;27;45352;-72
2022/10/28 08:01:18;;;;;;;;;12.75;12.75;;;;;;;;5109391;27;46043;-76
2022/10/28 08:03:44;;;;;;;;;13.00;13.00;;;;;;;;5113701;27;45363;-76
2022/10/28 08:06:11;;;;;;;;;14.50;14.50;;;;;;;;5102770;27;45406;-74
2022/10/28 08:08:37;;;;;;;;;13.25;13.25;;;;;;;;5100961;27;45337;-74
2022/10/28 08:11:13;;;;;;;;;18.25;18.25;;;;;;;;5099627;27;46327;-77
2022/10/28 08:13:38;;;;;;;;;16.25;14.25;;;;;;;;5100713;27;45394;-75
2022/10/28 08:16:04;;;;;;;;;18.50;16.50;;;;;;;;5099845;27;45297;-78
2022/10/28 08:18:29;;;;;;;;;11.75;11.75;;;;;;;;5099632;27;45464;-75
2022/10/28 08:20:57;;;;;;;;;19.25;19.25;;;;;;;;5099591;27;45770;-75
2022/10/28 08:23:22;;;;;;;;;16.25;14.75;;;;;;;;5098849;27;45243;-74
2022/10/28 08:25:48;;;;;;;;;13.25;12.00;;;;;;;;5099046;27;45303;-74
2022/10/28 08:28:13;;;;;;;;;10.25;9.75;;;;;;;;5099328;27;45586;-75
2022/10/28 08:30:39;;;;;;;;;9.50;9.50;;;;;;;;5098554;27;45197;-75
2022/10/28 08:33:04;;;;;;;;;13.50;12.50;;;;;;;;5099969;27;45314;-75
2022/10/28 08:35:29;;;;;;;;;5.75;5.00;;;;;;;;5099341;27;45215;-77
2022/10/28 08:37:54;;;;;;;;;12.50;12.50;;;;;;;;5099154;27;45556;-75
2022/10/28 08:40:24;;;;;;;;;17.00;17.00;;;;;;;;5100215;27;45494;-76
2022/10/28 08:42:50;;;;;;;;;11.50;11.50;;;;;;;;5102077;27;45382;-76
2022/10/28 08:45:16;;;;;;;;;12.25;12.25;;;;;;;;5100161;27;45449;-74
2022/10/28 08:47:56;;;;;;;;;14.50;13.50;;;;;;;;5098795;27;45524;-76
2022/10/28 08:50:23;;;;;;;;;12.50;12.50;;;;;;;;5098814;27;46172;-75
2022/10/28 08:52:55;;;;;;;;;14.25;14.25;;;;;;;;5098461;27;45267;-76
2022/10/28 08:55:32;;;;;;;;;10.50;10.50;;;;;;;;5099901;27;45237;-75
2022/10/28 08:58:18;;;;;;;;;13.25;13.00;;;;;;;;5100343;27;45485;-76
2022/10/28 09:00:45;;;;;;;;;10.75;10.25;;;;;;;;5079062;27;46288;-76
2022/10/28 09:03:10;;;;;;;;;14.25;14.00;;;;;;;;5097304;27;45296;-75
2022/10/28 09:05:37;;;;;;;;;12.25;12.25;;;;;;;;5098100;27;45428;-76
2022/10/28 09:08:03;;;;;;;;;13.75;13.75;;;;;;;;5098481;27;45533;-77
2022/10/28 09:10:40;;;;;;;;;13.25;12.75;;;;;;;;5098487;27;47308;-75
2022/10/28 09:13:09;;;;;;;;;11.00;11.00;;;;;;;;5080331;27;45412;-76
2022/10/28 09:15:54;;;;;;;;;11.75;11.75;;;;;;;;5080295;27;45951;-74
2022/10/28 09:18:35;;;;;;;;;11.00;11.00;;;;;;;;5068770;27;45451;-74
2022/10/28 09:21:03;;;;;;;;;10.00;9.00;;;;;;;;5102804;27;46170;-75
2022/10/28 09:23:30;;;;;;;;;10.75;10.75;;;;;;;;5100600;27;45335;-74
2022/10/28 09:26:02;;;;;;;;;7.00;7.00;;;;;;;;5098172;27;45390;-76
2022/10/28 09:28:38;;;;;;;;;12.50;12.00;;;;;;;;5099854;27;45370;-76
2022/10/28 09:31:18;;;;;;;;;10.25;9.75;;;;;;;;5063446;27;47139;-76
2022/10/28 09:33:44;;;;;;;;;8.75;8.75;;;;;;;;5097674;27;45268;-74
2022/10/28 09:36:12;;;;;;;;;10.50;10.50;;;;;;;;5079972;27;45286;-77
2022/10/28 09:38:38;;;;;;;;;9.25;9.25;;;;;;;;5097994;27;45358;-77
2022/10/28 09:41:09;;;;;;;;;10.75;10.75;;;;;;;;5079413;27;45542;-75
2022/10/28 09:43:37;;;;;;;;;8.75;8.75;;;;;;;;5097578;27;45359;-76
2022/10/28 09:46:23;;;;;;;;;12.75;12.75;;;;;;;;5082191;27;45319;-76
2022/10/28 09:48:49;;;;;;;;;11.75;11.00;;;;;;;;5078520;27;45354;-75
2022/10/28 09:51:23;;;;;;;;;7.25;7.25;;;;;;;;5096941;27;46185;-76
2022/10/28 09:53:55;;;;;;;;;11.50;11.50;;;;;;;;5088353;27;45422;-76
2022/10/28 09:56:20;;;;;;;;;17.25;16.00;;;;;;;;5082006;27;45334;-76
2022/10/28 09:58:46;;;;;;;;;15.50;15.50;;;;;;;;5077022;28;45232;-75
2022/10/28 10:01:12;;;;;;;;;9.25;9.25;;;;;;;;5076744;28;45336;-72
2022/10/28 10:03:40;;;;;;;;;12.25;12.25;;;;;;;;5076660;28;45432;-76
2022/10/28 10:06:18;;;;;;;;;12.25;12.25;;;;;;;;5076583;28;45436;-75
2022/10/28 10:08:44;;;;;;;;;12.50;10.75;;;;;;;;5077621;28;45297;-73
2022/10/28 10:11:25;;;;;;;;;12.75;11.25;;;;;;;;5076828;28;46217;-75
2022/10/28 10:13:51;;;;;;;;;9.00;9.00;;;;;;;;5058411;28;45902;-73
2022/10/28 10:16:32;;;;;;;;;10.00;10.00;;;;;;;;5075601;28;45342;-74
2022/10/28 10:19:00;;;;;;;;;12.25;12.25;;;;;;;;5077155;28;45371;-73
2022/10/28 10:21:41;;;;;;;;;15.50;15.25;;;;;;;;5081375;27;45460;-74
2022/10/28 10:24:25;;;;;;;;;13.00;12.75;;;;;;;;5096769;27;45226;-74
2022/10/28 10:26:51;;;;;;;;;15.75;13.50;;;;;;;;5095517;27;45360;-73
2022/10/28 10:29:17;;;;;;;;;13.75;12.25;;;;;;;;5098988;27;45490;-74
2022/10/28 10:31:42;;;;;;;;;10.25;9.25;;;;;;;;5098393;27;46439;-77
2022/10/28 10:34:21;;;;;;;;;13.00;13.00;;;;;;;;5099181;27;45372;-76
2022/10/28 10:36:48;;;;;;;;;10.00;10.00;;;;;;;;5098376;27;45854;-77
2022/10/28 10:39:19;;;;;;;;;12.00;12.00;;;;;;;;5099521;27;45451;-74
2022/10/28 10:41:44;;;;;;;;;13.25;13.25;;;;;;;;5101347;27;46197;-75
2022/10/28 10:44:21;;;;;;;;;16.00;16.00;;;;;;;;5096569;27;46399;-75
2022/10/28 10:46:58;;;;;;;;;8.00;8.00;;;;;;;;5097617;27;45843;-76
2022/10/28 10:49:24;;;;;;;;;10.00;10.00;;;;;;;;5096683;27;45212;-73
2022/10/28 10:51:57;;;;;;;;;14.00;13.50;;;;;;;;5094743;27;48519;-73
2022/10/28 10:54:23;;;;;;;;;10.00;10.00;;;;;;;;5095296;27;45335;-74
2022/10/28 10:56:48;;;;;;;;;20.50;19.25;;;;;;;;5096610;27;45211;-75
2022/10/28 10:59:21;;;;;;;;;13.00;13.00;;;;;;;;5097500;27;45598;-75
2022/10/28 11:01:47;;;;;;;;;11.00;10.50;;;;;;;;5096253;27;45370;-74
2022/10/28 11:07:15;;;;;;;;;15.25;15.00;;;;;;;;5096028;27;45346;-74
2022/10/28 11:09:41;;;;;;;;;17.25;16.00;;;;;;;;5096925;27;45537;-75
2022/10/28 11:12:23;;;;;;;;;12.25;12.25;;;;;;;;5094913;27;46929;-75
2022/10/28 11:14:53;;;;;;;;;13.25;13.25;;;;;;;;5097665;27;45250;-76
2022/10/28 11:17:31;;;;;;;;;14.25;14.25;;;;;;;;5098811;27;45306;-74
2022/10/28 11:20:01;;;;;;;;;14.00;14.00;;;;;;;;5096881;27;45290;-75
2022/10/28 11:22:40;;;;;;;;;12.75;12.75;;;;;;;;5096984;27;45430;-75
2022/10/28 11:25:18;;;;;;;;;13.75;13.75;;;;;;;;5095368;27;45361;-75
2022/10/28 11:27:49;;;;;;;;;11.00;11.00;;;;;;;;5099695;27;45355;-75
2022/10/28 11:30:16;;;;;;;;;14.00;14.00;;;;;;;;5100087;27;45348;-74
2022/10/28 11:32:48;;;;;;;;;8.75;8.75;;;;;;;;5098161;27;46438;-74
2022/10/28 11:35:14;;;;;;;;;17.00;16.00;;;;;;;;5099102;27;45814;-74
2022/10/28 11:37:42;;;;;;;;;17.25;15.50;;;;;;;;5098220;27;45297;-74
2022/10/28 11:40:26;;;;;;;;;18.00;17.75;;;;;;;;5099753;27;45611;-73
2022/10/28 11:43:07;;;;;;;;;18.25;17.75;;;;;;;;5099320;27;47083;-73
2022/10/28 11:45:58;;;;;;;;;13.00;13.00;;;;;;;;5101683;27;45233;-76
2022/10/28 11:48:26;;;;;;;;;17.50;12.50;;;;;;;;5101198;27;45413;-75
2022/10/28 11:50:51;;;;;;;;;16.50;16.50;;;;;;;;5100596;27;45501;-76
2022/10/28 11:53:49;;;;;;;;;23.75;20.25;;;;;;;;5100213;27;46371;-74
2022/10/28 11:56:26;;;;;;;;;24.00;24.00;;;;;;;;5055621;27;45318;-75
2022/10/28 11:59:02;;;;;;;;;19.50;19.50;;;;;;;;5100290;27;45688;-74
2022/10/28 12:01:30;;;;;;;;;21.00;20.50;;;;;;;;5104159;27;45492;-75
2022/10/28 12:04:04;;;;;;;;;14.50;13.25;;;;;;;;5099938;27;45677;-74
2022/10/28 12:06:47;;;;;;;;;21.75;21.50;;;;;;;;5099492;27;45341;-75
2022/10/28 12:09:19;;;;;;;;;15.25;14.00;;;;;;;;5099849;27;45398;-74
2022/10/28 12:11:53;;;;;;;;;11.50;11.50;;;;;;;;5099525;27;45435;-75
2022/10/28 12:14:20;;;;;;;;;12.50;12.50;;;;;;;;5099559;27;46596;-74
2022/10/28 12:16:52;;;;;;;;;15.25;13.75;;;;;;;;5100926;27;45429;-77
2022/10/28 12:19:21;;;;;;;;;14.50;14.50;;;;;;;;5100336;27;45371;-74
2022/10/28 12:21:49;;;;;;;;;13.75;13.75;;;;;;;;5099126;27;45461;-73
2022/10/28 12:24:16;;;;;;;;;18.75;18.25;;;;;;;;5098228;27;46225;-73
2022/10/28 12:26:47;;;;;;;;;12.25;12.25;;;;;;;;5098805;27;45372;-73
2022/10/28 12:29:39;;;;;;;;;16.00;16.00;;;;;;;;5098511;27;45411;-74
2022/10/28 12:32:12;;;;;;;;;11.75;11.75;;;;;;;;5095539;27;45358;-75
2022/10/28 12:34:58;;;;;;;;;13.25;13.25;;;;;;;;5099044;27;46218;-75
2022/10/28 12:37:27;;;;;;;;;29.00;28.75;;;;;;;;5097721;27;45239;-73
2022/10/28 12:39:58;;;;;;;;;10.50;10.50;;;;;;;;5099177;27;45500;-75
2022/10/28 12:42:41;;;;;;;;;32.50;30.25;;;;;;;;5099248;27;45240;-75
2022/10/28 12:45:10;;;;;;;;;11.00;11.00;;;;;;;;5099037;27;45389;-75
2022/10/28 12:47:41;;;;;;;;;14.75;14.75;;;;;;;;5098290;27;45371;-75
2022/10/28 12:50:17;;;;;;;;;10.75;10.75;;;;;;;;5098413;27;45349;-76
2022/10/28 12:52:57;;;;;;;;;14.00;14.00;;;;;;;;5098317;27;45436;-75
2022/10/28 12:55:25;;;;;;;;;7.75;7.75;;;;;;;;5099030;27;45571;-74
2022/10/28 12:57:56;;;;;;;;;14.25;12.75;;;;;;;;5100945;27;45370;-74
2022/10/28 13:00:26;;;;;;;;;13.25;13.25;;;;;;;;5101979;27;45230;-75
2022/10/28 13:03:08;;;;;;;;;17.75;17.75;;;;;;;;5101328;27;45458;-73
2022/10/28 13:05:50;;;;;;;;;15.25;15.25;;;;;;;;5098906;27;45317;-75
2022/10/28 13:08:21;;;;;;;;;15.75;15.00;;;;;;;;5099026;27;45177;-74
2022/10/28 13:11:04;;;;;;;;;12.00;12.00;;;;;;;;5098943;27;45368;-74
2022/10/28 13:13:41;;;;;;;;;12.75;12.50;;;;;;;;5098452;27;45421;-73
2022/10/28 13:16:10;;;;;;;;;14.75;14.75;;;;;;;;5096856;27;48171;-74
2022/10/28 13:18:38;;;;;;;;;11.00;11.00;;;;;;;;5096954;27;45267;-74
2022/10/28 13:21:12;;;;;;;;;10.00;10.00;;;;;;;;5099183;27;45430;-74
2022/10/28 13:23:57;;;;;;;;;16.00;15.25;;;;;;;;5100766;27;45593;-74
2022/10/28 13:26:25;;;;;;;;;29.50;27.25;;;;;;;;5055917;27;45547;-75
2022/10/28 13:28:52;;;;;;;;;15.25;15.25;;;;;;;;5097769;27;45317;-74
2022/10/28 13:31:19;;;;;;;;;10.25;9.75;;;;;;;;5097795;27;45308;-75
2022/10/28 13:33:53;;;;;;;;;18.00;14.00;;;;;;;;5097946;27;45237;-74
2022/10/28 13:36:18;;;;;;;;;14.25;14.25;;;;;;;;5097297;27;45419;-73
2022/10/28 13:38:54;;;;;;;;;14.75;14.25;;;;;;;;5097543;27;45325;-75
2022/10/28 13:41:29;;;;;;;;;14.00;13.75;;;;;;;;5097462;27;45459;-75
2022/10/28 13:43:56;;;;;;;;;10.25;10.25;;;;;;;;5097292;27;45268;-74
2022/10/28 13:46:40;;;;;;;;;9.50;9.50;;;;;;;;5098705;27;46096;-74
2022/10/28 13:49:40;;;;;;;;;12.00;12.00;;;;;;;;5097832;27;45196;-75
2022/10/28 13:52:06;;;;;;;;;7.75;7.75;;;;;;;;4997974;28;45545;-75
2022/10/28 13:54:31;;;;;;;;;15.00;13.75;;;;;;;;5079758;27;45531;-75
2022/10/28 13:57:01;;;;;;;;;19.50;19.50;;;;;;;;5095435;27;45921;-74
2022/10/28 13:59:28;;;;;;;;;9.50;8.75;;;;;;;;5097333;27;45191;-74
2022/10/28 14:01:55;;;;;;;;;10.50;10.50;;;;;;;;5097740;27;45241;-74
2022/10/28 14:04:27;;;;;;;;;8.75;8.75;;;;;;;;5097820;27;45326;-73
2022/10/28 14:07:15;;;;;;;;;12.50;12.50;;;;;;;;5097661;27;45248;-76
2022/10/28 14:09:40;;;;;;;;;11.00;11.00;;;;;;;;5099214;27;45394;-74
2022/10/28 14:12:26;;;;;;;;;11.25;11.25;;;;;;;;5096548;27;45475;-75
2022/10/28 14:14:59;;;;;;;;;9.50;9.50;;;;;;;;5097024;27;45649;-73
2022/10/28 14:17:38;;;;;;;;;12.75;12.75;;;;;;;;5097628;27;46182;-75
2022/10/28 14:20:20;;;;;;;;;10.75;10.75;;;;;;;;5097493;27;45450;-74
2022/10/28 14:22:45;;;;;;;;;10.50;10.50;;;;;;;;5097419;27;45298;-73
2022/10/28 14:25:34;;;;;;;;;9.75;9.75;;;;;;;;5097221;27;45432;-73
2022/10/28 14:28:00;;;;;;;;;11.50;11.50;;;;;;;;5058271;27;46409;-74
2022/10/28 14:30:25;;;;;;;;;8.00;8.00;;;;;;;;5096706;27;45428;-75
2022/10/28 14:32:59;;;;;;;;;8.50;8.50;;;;;;;;5097122;27;45300;-73
2022/10/28 14:35:45;;;;;;;;;10.50;10.50;;;;;;;;5098855;27;45604;-74
2022/10/28 14:38:10;;;;;;;;;18.25;18.00;;;;;;;;5097988;27;45260;-74
2022/10/28 14:40:51;;;;;;;;;7.50;7.50;;;;;;;;5096780;27;45313;-74
2022/10/28 14:43:22;;;;;;;;;7.25;7.25;;;;;;;;5098775;27;45312;-74